This is the latest recevied weather packets stored in our database for station/object OK1KZE-6. If no packets are shown the sender has not sent any weather packets the latest 1 day(s).
| Time | Temp. | Humidity | Pressure | Rain* | Wind** | Luminosity | Snow |
|---|---|---|---|---|---|---|---|
| 1778080208 | 15.56° C | 69% | 1007.7 hPa | - | - | - | - |
| 1778076308 | 18.89° C | 57% | 1008 hPa | - | - | - | - |
| 1778075409 | 19.44° C | 55% | 1007.9 hPa | - | - | - | - |
| 1778073608 | 20° C | 53% | 1008.3 hPa | - | - | - | - |
| 1778072108 | 20° C | 56% | 1008.8 hPa | - | - | - | - |
| 1778069108 | 18.33° C | 63% | 1009.2 hPa | - | - | - | - |
| 1778067909 | 17.78° C | 68% | 1009.2 hPa | - | - | - | - |
| 1778067308 | 17.78° C | 66% | 1009.4 hPa | - | - | - | - |
| 1778067008 | 18.33° C | 64% | 1009.3 hPa | - | - | - | - |
| 1778066408 | 17.78° C | 66% | 1009.6 hPa | - | - | - | - |
| 1778066108 | 17.22° C | 66% | 1009.5 hPa | - | - | - | - |
| 1778064908 | 17.78° C | 66% | 1009.6 hPa | - | - | - | - |
| 1778064008 | 16.67° C | 70% | 1009.8 hPa | - | - | - | - |
| 1778063708 | 16.67° C | 70% | 1009.7 hPa | - | - | - | - |
| 1778063408 | 16.67° C | 69% | 1009.6 hPa | - | - | - | - |
| 1778063108 | 16.67° C | 70% | 1009.7 hPa | - | - | - | - |
| 1778062808 | 16.11° C | 69% | 1009.6 hPa | - | - | - | - |
| 1778062208 | 16.67° C | 69% | 1009.7 hPa | - | - | - | - |
| 1778061609 | 16.11° C | 71% | 1009.5 hPa | - | - | - | - |
| 1778061009 | 16.11° C | 71% | 1009.6 hPa | - | - | - | - |
| 1778060709 | 16.11° C | 71% | 1009.4 hPa | - | - | - | - |
| 1778060108 | 15.56° C | 71% | 1009.6 hPa | - | - | - | - |
| 1778058608 | 15° C | 74% | 1009.6 hPa | - | - | - | - |
| 1778058308 | 15° C | 74% | 1009.6 hPa | - | - | - | - |
| 1778057408 | 15° C | 76% | 1009.5 hPa | - | - | - | - |
* Rain since midnight (hover to see other rain measurements)
** Current wind speed in m/s (hover to see current wind gust speed)